Rockford, IL (61101)

2:28 PM CST on February 22, 2017 (GMT -0600)
Chateau | | Change Station

Elev 909 ft 42.31 °N, 89.10 °W | Updated 30 seconds ago

Clear
Clear
71.9 °F
Feels Like 77 °F
N
5.0
Wind Variable Wind from ESE

Today
High -- | Low -- °F
--% Chance of Precip.
Yesterday
High -- | Low -- °F
Precip. -- in
Pressure 29.65 in
Visibility 10.0 miles
Clouds Few 15000 ft
Heat Index 77 °F
Dew Point 54 °F
Humidity 55%
Rainfall 0.00 in
Snow Depth Not available.
6:42 AM 5:38 PM
Waning Crescent, 15% visible
METAR KRFD 221954Z 20013KT 10SM FEW150 21/11 A2965 RMK AO2 SLP041 T02060111
Pressure 29.65 in
Visibility 10.0 miles
Clouds Few 15000 ft
Heat Index 77 °F
Dew Point 54 °F
Humidity 55%
Rainfall 0.00 in
Snow Depth Not available.
6:42 AM 5:38 PM
Waning Crescent, 15% visible
METAR KRFD 221954Z 20013KT 10SM FEW150 21/11 A2965 RMK AO2 SLP041 T02060111

Get Your Daily Forecast Email!

Thanks for signing up!

Be on the lookout for a verification email in your inbox.

You'll start receiving the daily forecast at 8 AM.

×

10-Day Weather Forecast

Almanac

Astronomy

Feb. 22, 2017 Rise Set
Actual Time
Civil Twilight
Nautical Twilight
Astronomical Twilight
Moon
Length of Visible Light
Length of Day
Tomorrow will be .
, % of the Moon is Illuminated

Today's Extremes

State Highs State Lows

Community

WunderPhotos

Upload Photos

1,962,540 photos uploaded!

WunderBlog® & News

Nearby

Air Quality

  Air Quality AQ Index Pollutant
Not available.

Snow Depth

Station Depth Elevation

Earthquake Activity

City Distance Mag. Time & Date
Minimum magnitude displayed is 2.5.

Coastal Water Temperatures

Place Temperature

Stations

Nearby Weather Stations

Station Location Temp. Windchill Dew Point Humidity Wind Precip. Elev Updated Type
                   

Watches & Warnings

There are currently no watches in effect.